createdAt,value
2018-07-16T00:00:36.008Z,22.4
2018-07-16T00:01:50.453Z,22.39
2018-07-16T00:03:04.839Z,22.4
2018-07-16T00:04:19.801Z,22.41
2018-07-16T00:05:34.377Z,22.41
2018-07-16T00:06:49.026Z,22.41
2018-07-16T00:08:03.947Z,22.42
2018-07-16T00:09:18.439Z,22.42
2018-07-16T00:10:33.595Z,22.41
2018-07-16T00:11:48.377Z,22.42
2018-07-16T00:13:02.551Z,22.41
2018-07-16T00:14:17.015Z,22.42
2018-07-16T00:15:31.728Z,22.42
2018-07-16T00:16:45.933Z,22.43
2018-07-16T00:18:00.234Z,22.43
2018-07-16T00:19:14.188Z,22.43
2018-07-16T00:20:28.618Z,22.43
2018-07-16T00:21:43.023Z,22.43
2018-07-16T00:22:57.996Z,22.43
2018-07-16T00:24:12.913Z,22.44
2018-07-16T00:25:27.552Z,22.43
2018-07-16T00:26:41.708Z,22.45
2018-07-16T00:27:56.105Z,22.47
2018-07-16T00:29:10.893Z,22.48
2018-07-16T00:30:25.314Z,22.47
2018-07-16T00:31:39.888Z,22.46
2018-07-16T00:32:54.551Z,22.43
2018-07-16T00:34:09.172Z,22.39
2018-07-16T00:35:23.640Z,22.37
2018-07-16T00:36:37.810Z,22.35
2018-07-16T00:37:51.997Z,22.33
2018-07-16T00:39:06.169Z,22.31
2018-07-16T00:40:20.091Z,22.29
2018-07-16T00:41:34.834Z,22.28
2018-07-16T00:42:49.244Z,22.26
2018-07-16T00:44:03.939Z,22.26
2018-07-16T00:45:19.369Z,22.25
2018-07-16T00:46:34.319Z,22.25
2018-07-16T00:47:49.243Z,22.26
2018-07-16T00:49:03.904Z,22.27
2018-07-16T00:50:17.825Z,22.27
2018-07-16T00:51:32.244Z,22.29
2018-07-16T00:52:46.971Z,22.3
2018-07-16T00:54:01.671Z,22.31
2018-07-16T00:55:15.848Z,22.31
2018-07-16T00:56:30.594Z,22.31
2018-07-16T00:57:45.449Z,22.34
2018-07-16T00:58:59.622Z,22.36
2018-07-16T01:00:14.363Z,22.38
2018-07-16T01:01:29.072Z,22.37
2018-07-16T01:02:43.493Z,22.37
2018-07-16T01:03:57.899Z,22.33
2018-07-16T01:05:22.552Z,22.31
2018-07-16T01:06:36.902Z,22.29
2018-07-16T01:07:51.593Z,22.26
2018-07-16T01:09:06.314Z,22.24
2018-07-16T01:10:21.244Z,22.22
2018-07-16T01:11:35.664Z,22.23
2018-07-16T01:12:51.325Z,22.21
2018-07-16T01:14:05.501Z,22.19
2018-07-16T01:15:18.922Z,22.19
2018-07-16T01:16:33.601Z,22.18
2018-07-16T01:17:48.274Z,22.19
2018-07-16T01:19:03.012Z,22.19
2018-07-16T01:20:17.193Z,22.18
2018-07-16T01:21:32.085Z,22.18
2018-07-16T01:22:46.481Z,22.2
2018-07-16T01:24:00.884Z,22.19
2018-07-16T01:25:15.334Z,22.18
2018-07-16T01:26:30.631Z,22.17
2018-07-16T01:27:44.984Z,22.16
2018-07-16T01:28:59.412Z,22.17
2018-07-16T01:30:13.810Z,22.15
2018-07-16T01:31:28.693Z,22.15
2018-07-16T01:32:43.150Z,22.13
2018-07-16T01:33:57.236Z,22.13
2018-07-16T01:35:11.882Z,22.11
2018-07-16T01:36:26.506Z,22.11
2018-07-16T01:37:42.047Z,22.1
2018-07-16T01:38:56.363Z,22.08
2018-07-16T01:40:11.033Z,22.07
2018-07-16T01:41:25.189Z,22.08
2018-07-16T01:42:39.614Z,22.09
2018-07-16T01:43:54.287Z,22.13
2018-07-16T01:45:08.779Z,22.14
2018-07-16T01:46:22.940Z,22.16
2018-07-16T01:47:36.844Z,22.15
2018-07-16T01:48:51.234Z,22.14
2018-07-16T01:50:05.935Z,22.14
2018-07-16T01:51:20.325Z,22.16
2018-07-16T01:52:34.248Z,22.16
2018-07-16T01:53:48.435Z,22.1
2018-07-16T01:55:03.098Z,21.96
2018-07-16T01:56:18.100Z,21.79
2018-07-16T01:57:33.259Z,21.61
2018-07-16T01:58:47.938Z,21.46
2018-07-16T02:00:02.112Z,21.35
2018-07-16T02:01:17.039Z,21.27
2018-07-16T02:02:31.725Z,21.2
2018-07-16T02:03:46.279Z,21.14
2018-07-16T02:05:00.934Z,21.1
2018-07-16T02:06:15.102Z,21.06
2018-07-16T02:07:29.760Z,21.01
2018-07-16T02:08:44.724Z,20.96
2018-07-16T02:09:59.025Z,20.89
2018-07-16T02:11:41.771Z,20.85
2018-07-16T02:12:56.485Z,20.79
2018-07-16T02:14:11.103Z,20.73
2018-07-16T02:15:25.516Z,20.72
2018-07-16T02:16:40.474Z,20.68
2018-07-16T02:17:55.128Z,20.67
2018-07-16T02:19:09.535Z,20.67
2018-07-16T02:20:23.568Z,20.7
2018-07-16T02:21:38.228Z,20.7
2018-07-16T02:22:52.681Z,20.7
2018-07-16T02:24:07.103Z,20.7
2018-07-16T02:25:22.058Z,20.66
2018-07-16T02:26:36.773Z,20.64
2018-07-16T02:27:51.484Z,20.61
2018-07-16T02:29:06.166Z,20.56
2018-07-16T02:30:20.809Z,20.53
2018-07-16T02:31:35.729Z,20.47
2018-07-16T02:32:50.085Z,20.42
2018-07-16T02:34:04.820Z,20.37
2018-07-16T02:35:19.228Z,20.33
2018-07-16T02:36:33.886Z,20.28
2018-07-16T02:37:48.766Z,20.28
2018-07-16T02:39:03.448Z,20.27
2018-07-16T02:40:17.846Z,20.27
2018-07-16T02:41:32.480Z,20.27
2018-07-16T02:42:47.224Z,20.29
2018-07-16T02:44:01.586Z,20.32
2018-07-16T02:45:16.346Z,20.34
2018-07-16T02:46:31.028Z,20.36
2018-07-16T02:47:45.200Z,20.38
2018-07-16T02:48:59.620Z,20.4
2018-07-16T02:50:14.088Z,20.4
2018-07-16T02:51:28.615Z,20.39
2018-07-16T02:52:42.593Z,20.38
2018-07-16T02:53:57.014Z,20.36
2018-07-16T02:55:11.449Z,20.36
2018-07-16T02:56:26.274Z,20.37
2018-07-16T02:57:41.506Z,20.37
2018-07-16T02:58:56.200Z,20.4
2018-07-16T03:00:09.855Z,20.42
2018-07-16T03:01:24.523Z,20.43
2018-07-16T03:02:38.457Z,20.45
2018-07-16T03:03:53.208Z,20.46
2018-07-16T03:05:07.372Z,20.49
2018-07-16T03:06:22.082Z,20.51
2018-07-16T03:07:36.497Z,20.52
2018-07-16T03:08:50.735Z,20.52
2018-07-16T03:10:05.735Z,20.53
2018-07-16T03:11:20.401Z,20.52
2018-07-16T03:12:34.645Z,20.51
2018-07-16T03:13:49.331Z,20.49
2018-07-16T03:15:03.782Z,20.49
2018-07-16T03:16:18.629Z,20.47
2018-07-16T03:17:33.715Z,20.45
2018-07-16T03:18:47.637Z,20.44
2018-07-16T03:20:02.085Z,20.45
2018-07-16T03:21:16.804Z,20.44
2018-07-16T03:22:31.311Z,20.44
2018-07-16T03:23:45.295Z,20.41
2018-07-16T03:25:00.428Z,20.39
2018-07-16T03:26:14.593Z,20.35
2018-07-16T03:27:29.569Z,20.32
2018-07-16T03:28:44.249Z,20.28
2018-07-16T03:29:58.707Z,20.23
2018-07-16T03:31:13.406Z,20.23
2018-07-16T03:32:28.088Z,20.22
2018-07-16T03:33:43.299Z,20.23
2018-07-16T03:34:57.461Z,20.27
2018-07-16T03:36:11.663Z,20.3
2018-07-16T03:37:25.839Z,20.33
2018-07-16T03:38:40.242Z,20.36
2018-07-16T03:39:55.220Z,20.37
2018-07-16T03:41:09.391Z,20.38
2018-07-16T03:42:23.827Z,20.39
2018-07-16T03:43:38.525Z,20.42
2018-07-16T03:44:52.671Z,20.44
2018-07-16T03:46:07.592Z,20.45
2018-07-16T03:47:22.562Z,20.47
2018-07-16T03:48:37.475Z,20.48
2018-07-16T03:49:52.051Z,20.5
2018-07-16T03:51:24.510Z,20.5
2018-07-16T03:52:39.427Z,20.46
2018-07-16T03:53:54.107Z,20.43
2018-07-16T03:55:08.063Z,20.38
2018-07-16T03:56:22.492Z,20.33
2018-07-16T03:57:37.159Z,20.29
2018-07-16T03:58:51.540Z,20.24
2018-07-16T04:00:06.492Z,20.21
2018-07-16T04:01:21.480Z,20.18
2018-07-16T04:02:35.728Z,20.17
2018-07-16T04:03:50.394Z,20.17
2018-07-16T04:05:05.136Z,20.16
2018-07-16T04:06:19.552Z,20.16
2018-07-16T04:07:34.246Z,20.16
2018-07-16T04:08:48.892Z,20.17
2018-07-16T04:10:03.310Z,20.2
2018-07-16T04:11:18.224Z,20.24
2018-07-16T04:12:33.099Z,20.28
2018-07-16T04:13:47.291Z,20.32
2018-07-16T04:15:01.945Z,20.35
2018-07-16T04:16:16.417Z,20.38
2018-07-16T04:17:30.576Z,20.42
2018-07-16T04:18:45.517Z,20.45
2018-07-16T04:20:00.000Z,20.51
2018-07-16T04:21:13.930Z,20.54
2018-07-16T04:22:28.370Z,20.58
2018-07-16T04:23:51.839Z,20.61
2018-07-16T04:25:06.295Z,20.63
2018-07-16T04:26:20.753Z,20.67
2018-07-16T04:27:35.201Z,20.68
2018-07-16T04:28:50.220Z,20.7
2018-07-16T04:30:04.671Z,20.74
2018-07-16T04:31:19.083Z,20.75
2018-07-16T04:32:33.524Z,20.8
2018-07-16T04:33:47.991Z,20.83
2018-07-16T04:35:01.735Z,20.87
2018-07-16T04:36:16.141Z,20.9
2018-07-16T04:37:30.548Z,20.92
2018-07-16T04:38:44.964Z,20.96
2018-07-16T04:39:59.750Z,20.99
2018-07-16T04:41:15.225Z,21.02
2018-07-16T04:42:29.656Z,21.05
2018-07-16T04:43:44.364Z,21.09
2018-07-16T04:44:58.549Z,21.12
2018-07-16T04:46:13.277Z,21.19
2018-07-16T04:47:28.004Z,21.48
2018-07-16T04:48:42.678Z,21.84
2018-07-16T04:49:57.389Z,21.82
2018-07-16T04:51:12.083Z,21.89
2018-07-16T04:52:26.978Z,22.2
2018-07-16T04:53:41.932Z,22.6
2018-07-16T04:54:56.564Z,22.88
2018-07-16T04:56:33.555Z,23.09
2018-07-16T04:57:47.982Z,23.4
2018-07-16T04:59:02.407Z,23.59
2018-07-16T05:00:17.093Z,23.84
2018-07-16T05:01:31.564Z,24.58
2018-07-16T05:02:46.224Z,25.51
2018-07-16T05:04:00.734Z,26.23
2018-07-16T05:05:14.561Z,26.62
2018-07-16T05:06:28.992Z,26.58
2018-07-16T05:07:43.409Z,26.87
2018-07-16T05:08:57.176Z,27.57
2018-07-16T05:10:11.365Z,27.94
2018-07-16T05:11:25.795Z,28.15
2018-07-16T05:12:40.348Z,28.32
2018-07-16T05:13:55.008Z,28.18
2018-07-16T05:15:09.490Z,27.87
2018-07-16T05:16:23.962Z,27.7
2018-07-16T05:17:38.360Z,27.68
2018-07-16T05:18:53.012Z,27.94
2018-07-16T05:21:11.580Z,28.01
2018-07-16T05:22:26.558Z,27.88
2018-07-16T05:23:41.045Z,27.68
2018-07-16T05:24:56.065Z,27.44
2018-07-16T05:26:10.497Z,27.24
2018-07-16T05:27:24.924Z,26.97
2018-07-16T05:28:40.088Z,26.72
2018-07-16T05:29:54.406Z,26.51
2018-07-16T05:31:08.916Z,26.31
2018-07-16T05:32:23.995Z,26.12
2018-07-16T05:33:38.916Z,25.94
2018-07-16T05:34:54.146Z,25.78
2018-07-16T05:36:11.681Z,25.63
2018-07-16T05:37:25.869Z,25.47
2018-07-16T05:38:40.574Z,25.34
2018-07-16T05:39:54.730Z,25.19
2018-07-16T05:41:09.409Z,25.06
2018-07-16T05:42:24.149Z,24.97
2018-07-16T05:43:38.320Z,24.86
2018-07-16T05:44:52.493Z,24.76
2018-07-16T05:46:07.455Z,24.67
2018-07-16T05:47:22.816Z,24.59
2018-07-16T05:48:50.453Z,24.53
2018-07-16T05:50:05.132Z,24.47
2018-07-16T05:51:19.733Z,24.4
2018-07-16T05:52:34.163Z,24.35
2018-07-16T05:53:48.897Z,24.33
2018-07-16T05:55:03.153Z,24.32
2018-07-16T05:56:18.188Z,24.33
2018-07-16T05:57:33.172Z,24.37
2018-07-16T05:58:47.858Z,24.39
2018-07-16T06:00:02.379Z,24.42
2018-07-16T06:01:28.950Z,24.44
2018-07-16T06:02:43.151Z,24.48
2018-07-16T06:03:57.870Z,24.5
2018-07-16T06:05:12.382Z,24.51
2018-07-16T06:06:27.518Z,24.54
2018-07-16T06:07:42.420Z,24.6
2018-07-16T06:08:56.403Z,24.64
2018-07-16T06:10:11.053Z,24.69
2018-07-16T06:11:25.256Z,24.74
2018-07-16T06:12:40.183Z,24.79
2018-07-16T06:13:54.655Z,24.84
2018-07-16T06:15:09.106Z,24.89
2018-07-16T06:16:24.070Z,24.89
2018-07-16T06:17:38.346Z,24.86
2018-07-16T06:18:52.582Z,24.82
2018-07-16T06:20:07.293Z,24.77
2018-07-16T06:21:22.013Z,24.74
2018-07-16T06:22:36.497Z,24.75
2018-07-16T06:23:50.463Z,24.75
2018-07-16T06:25:05.810Z,24.75
2018-07-16T06:26:20.038Z,24.76
2018-07-16T06:27:34.896Z,24.73
2018-07-16T06:28:49.589Z,24.72
2018-07-16T06:30:04.094Z,24.7
2018-07-16T06:31:18.799Z,24.71
2018-07-16T06:32:33.809Z,24.71
2018-07-16T06:33:47.835Z,24.71
2018-07-16T06:35:02.029Z,24.74
2018-07-16T06:36:16.973Z,24.74
2018-07-16T06:37:31.848Z,24.74
2018-07-16T06:38:46.042Z,24.76
2018-07-16T06:40:00.719Z,24.76
2018-07-16T06:41:16.440Z,24.76
2018-07-16T06:42:33.096Z,24.74
2018-07-16T06:43:48.198Z,24.74
2018-07-16T06:45:02.980Z,24.74
2018-07-16T06:46:17.684Z,24.77
2018-07-16T06:47:32.020Z,24.79
2018-07-16T06:48:47.304Z,24.8
2018-07-16T06:50:02.589Z,24.77
2018-07-16T06:51:17.590Z,24.73
2018-07-16T06:52:32.152Z,24.67
2018-07-16T06:53:47.194Z,24.61
2018-07-16T06:55:01.526Z,24.55
2018-07-16T06:56:17.070Z,24.52
2018-07-16T06:57:31.623Z,24.5
2018-07-16T06:58:46.455Z,24.47
2018-07-16T07:00:01.287Z,24.45
2018-07-16T07:01:16.951Z,24.44
2018-07-16T07:02:31.430Z,24.42
2018-07-16T07:03:45.640Z,24.41
2018-07-16T07:04:59.613Z,24.39
2018-07-16T07:06:14.791Z,24.37
2018-07-16T07:07:29.524Z,24.35
2018-07-16T07:08:43.713Z,24.33
2018-07-16T07:09:58.275Z,24.31
2018-07-16T07:11:13.830Z,24.3
2018-07-16T07:12:28.286Z,24.24
2018-07-16T07:13:42.507Z,24.16
2018-07-16T07:14:57.420Z,24.1
2018-07-16T07:16:12.102Z,24.05
2018-07-16T07:17:26.577Z,24
2018-07-16T07:18:41.012Z,23.96
2018-07-16T07:19:54.444Z,23.9
2018-07-16T07:21:09.338Z,23.84
2018-07-16T07:22:23.013Z,23.81
2018-07-16T07:23:36.914Z,23.77
2018-07-16T07:24:51.414Z,23.74
2018-07-16T07:26:05.387Z,23.69
2018-07-16T07:27:19.868Z,23.66
2018-07-16T07:28:34.281Z,23.64
2018-07-16T07:29:48.975Z,23.58
2018-07-16T07:31:03.986Z,23.52
2018-07-16T07:32:18.198Z,23.45
2018-07-16T07:33:32.680Z,23.38
2018-07-16T07:34:46.897Z,23.35
2018-07-16T07:36:01.222Z,23.3
2018-07-16T07:37:15.408Z,23.27
2018-07-16T07:38:29.570Z,23.24
2018-07-16T07:39:44.148Z,23.24
2018-07-16T07:40:58.861Z,23.25
2018-07-16T07:42:13.020Z,23.26
2018-07-16T07:43:27.210Z,23.28
2018-07-16T07:44:41.639Z,23.28
2018-07-16T07:45:55.922Z,23.29
2018-07-16T07:47:09.843Z,23.28
2018-07-16T07:48:24.268Z,23.32
2018-07-16T07:49:38.765Z,23.31
2018-07-16T07:50:53.203Z,23.33
2018-07-16T07:52:08.001Z,23.31
2018-07-16T07:53:22.471Z,23.31
2018-07-16T07:54:37.097Z,23.33
2018-07-16T07:55:54.112Z,23.32
2018-07-16T07:57:08.310Z,23.35
2018-07-16T07:58:22.736Z,23.36
2018-07-16T07:59:37.516Z,23.41
2018-07-16T08:00:51.966Z,23.47
2018-07-16T08:02:06.965Z,23.51
2018-07-16T08:03:28.191Z,23.58
2018-07-16T08:04:42.286Z,23.63
2018-07-16T08:05:57.228Z,23.66
2018-07-16T08:07:11.919Z,23.71
2018-07-16T08:08:26.382Z,23.76
2018-07-16T08:09:42.719Z,23.8
2018-07-16T08:10:57.487Z,23.82
2018-07-16T08:12:23.937Z,23.85
2018-07-16T08:13:39.034Z,23.9
2018-07-16T08:14:54.352Z,23.96
2018-07-16T08:16:09.805Z,24.01
2018-07-16T08:17:26.605Z,24.03
2018-07-16T08:18:41.389Z,24.06
2018-07-16T08:19:56.087Z,24.09
2018-07-16T08:21:10.612Z,24.11
2018-07-16T08:22:25.167Z,24.14
2018-07-16T08:23:39.921Z,24.19
2018-07-16T08:24:54.731Z,24.26
2018-07-16T08:26:09.196Z,24.34
2018-07-16T08:27:23.411Z,24.43
2018-07-16T08:28:38.452Z,24.49
2018-07-16T08:29:53.651Z,24.52
2018-07-16T08:31:09.935Z,24.56
2018-07-16T08:32:25.180Z,24.59
2018-07-16T08:33:40.094Z,24.58
2018-07-16T08:34:55.093Z,24.55
2018-07-16T08:36:09.949Z,24.54
2018-07-16T08:37:24.490Z,24.5
2018-07-16T08:38:39.225Z,24.45
2018-07-16T08:39:53.991Z,24.41
2018-07-16T08:41:08.555Z,24.35
2018-07-16T08:42:22.844Z,24.29
2018-07-16T08:43:38.579Z,24.22
2018-07-16T08:45:08.032Z,24.14
2018-07-16T08:46:22.974Z,24.06
2018-07-16T08:47:37.284Z,23.94
2018-07-16T08:48:52.009Z,23.88
2018-07-16T08:50:06.300Z,23.89
2018-07-16T08:51:20.827Z,23.94
2018-07-16T08:52:36.412Z,24
2018-07-16T08:53:51.552Z,24.03
2018-07-16T08:55:06.250Z,24.04
2018-07-16T08:56:20.727Z,24.05
2018-07-16T08:57:35.193Z,24.09
2018-07-16T08:58:49.413Z,24.11
2018-07-16T09:00:04.098Z,24.13
2018-07-16T09:01:18.680Z,24.15
2018-07-16T09:02:33.133Z,24.15
2018-07-16T09:03:47.855Z,24.21
2018-07-16T09:05:03.271Z,24.23
2018-07-16T09:06:17.993Z,24.27
2018-07-16T09:07:32.491Z,24.32
2018-07-16T09:08:47.467Z,24.4
2018-07-16T09:10:02.182Z,24.48
2018-07-16T09:11:16.832Z,24.57
2018-07-16T09:12:31.211Z,24.65
2018-07-16T09:13:45.670Z,24.73
2018-07-16T09:15:00.342Z,24.8
2018-07-16T09:16:14.831Z,24.87
2018-07-16T09:17:29.770Z,24.94
2018-07-16T09:18:44.231Z,25.01
2018-07-16T09:19:59.019Z,25.1
2018-07-16T09:21:13.936Z,25.24
2018-07-16T09:22:28.628Z,25.36
2018-07-16T09:23:43.605Z,25.48
2018-07-16T09:24:57.806Z,25.59
2018-07-16T09:26:12.568Z,25.74
2018-07-16T09:27:26.768Z,25.88
2018-07-16T09:28:41.227Z,25.99
2018-07-16T09:29:56.132Z,26.11
2018-07-16T09:31:10.657Z,26.21
2018-07-16T09:32:38.187Z,26.34
2018-07-16T09:33:53.314Z,26.48
2018-07-16T09:35:08.329Z,26.61
2018-07-16T09:36:23.385Z,26.75
2018-07-16T09:37:38.110Z,26.87
2018-07-16T09:38:53.241Z,26.99
2018-07-16T09:40:07.755Z,27.09
2018-07-16T09:41:22.762Z,27.2
2018-07-16T09:42:37.647Z,27.29
2018-07-16T09:43:52.137Z,27.33
2018-07-16T09:45:07.124Z,27.37
2018-07-16T09:46:21.927Z,27.38
2018-07-16T09:47:36.685Z,27.36
2018-07-16T09:48:51.502Z,27.38
2018-07-16T09:50:32.358Z,27.42
2018-07-16T09:51:46.410Z,27.44
2018-07-16T09:53:01.036Z,27.46
2018-07-16T09:54:15.451Z,27.45
2018-07-16T09:55:29.889Z,27.39
2018-07-16T09:56:44.957Z,27.31
2018-07-16T09:57:59.952Z,27.23
2018-07-16T09:59:13.937Z,27.13
2018-07-16T10:00:28.357Z,27.03
2018-07-16T10:01:42.835Z,26.93
2018-07-16T10:02:57.584Z,26.89
2018-07-16T10:04:11.773Z,26.84
2018-07-16T10:05:26.494Z,26.78
2018-07-16T10:06:41.206Z,26.76
2018-07-16T10:07:55.456Z,26.73
2018-07-16T10:09:10.212Z,26.71
2018-07-16T10:10:24.926Z,26.7
2018-07-16T10:11:40.231Z,26.71
2018-07-16T10:12:55.262Z,26.72
2018-07-16T10:14:10.011Z,26.72
2018-07-16T10:15:24.729Z,26.74
2018-07-16T10:16:39.389Z,26.75
2018-07-16T10:17:54.655Z,26.75
2018-07-16T10:19:08.859Z,26.76
2018-07-16T10:20:23.829Z,26.77
2018-07-16T10:21:38.955Z,26.78
2018-07-16T10:23:13.953Z,26.79
2018-07-16T10:24:28.173Z,26.81
2018-07-16T10:25:42.440Z,26.84
2018-07-16T10:26:57.646Z,26.86
2018-07-16T10:28:12.484Z,26.88
2018-07-16T10:29:26.901Z,26.88
2018-07-16T10:30:41.457Z,26.87
2018-07-16T10:31:55.707Z,26.87
2018-07-16T10:33:09.900Z,26.87
2018-07-16T10:34:24.402Z,26.89
2018-07-16T10:35:38.776Z,26.9
2018-07-16T10:36:53.530Z,26.91
2018-07-16T10:38:08.029Z,26.95
2018-07-16T10:39:22.834Z,27.03
2018-07-16T10:40:37.630Z,27.11
2018-07-16T10:41:52.087Z,27.19
2018-07-16T10:43:06.918Z,27.24
2018-07-16T10:44:21.378Z,27.26
2018-07-16T10:45:36.081Z,27.26
2018-07-16T10:46:50.514Z,27.29
2018-07-16T10:48:05.206Z,27.31
2018-07-16T10:49:20.164Z,27.34
2018-07-16T10:50:34.395Z,27.41
2018-07-16T10:51:49.451Z,27.47
2018-07-16T10:53:04.238Z,27.54
2018-07-16T10:54:18.892Z,27.58
2018-07-16T10:55:33.803Z,27.64
2018-07-16T10:56:48.259Z,27.68
2018-07-16T10:58:03.017Z,27.72
2018-07-16T10:59:17.217Z,27.77
2018-07-16T11:00:31.949Z,27.83
2018-07-16T11:01:46.976Z,27.89
2018-07-16T11:03:01.124Z,27.94
2018-07-16T11:04:16.344Z,27.98
2018-07-16T11:05:31.282Z,27.97
2018-07-16T11:06:46.304Z,27.95
2018-07-16T11:08:01.158Z,27.96
2018-07-16T11:09:15.876Z,27.98
2018-07-16T11:10:29.839Z,28
2018-07-16T11:11:44.322Z,28.03
2018-07-16T11:12:58.576Z,28.05
2018-07-16T11:14:12.796Z,28.05
2018-07-16T11:15:26.991Z,28.05
2018-07-16T11:16:41.183Z,28.06
2018-07-16T11:17:55.972Z,28.09
2018-07-16T11:19:10.300Z,28.12
2018-07-16T11:20:25.297Z,28.15
2018-07-16T11:21:39.483Z,28.15
2018-07-16T11:22:53.682Z,28.19
2018-07-16T11:24:08.149Z,28.21
2018-07-16T11:25:22.606Z,28.24
2018-07-16T11:26:37.599Z,28.28
2018-07-16T11:27:52.091Z,28.32
2018-07-16T11:29:21.164Z,28.37
2018-07-16T11:30:35.667Z,28.41
2018-07-16T11:31:49.921Z,28.42
2018-07-16T11:33:04.467Z,28.44
2018-07-16T11:34:18.689Z,28.46
2018-07-16T11:35:32.871Z,28.5
2018-07-16T11:36:47.995Z,28.51
2018-07-16T11:38:01.993Z,28.52
2018-07-16T11:39:16.615Z,28.55
2018-07-16T11:40:30.797Z,28.59
2018-07-16T11:41:45.603Z,28.62
2018-07-16T11:42:59.819Z,28.64
2018-07-16T11:44:14.335Z,28.67
2018-07-16T11:45:29.234Z,28.72
2018-07-16T11:46:44.290Z,28.74
2018-07-16T11:47:58.801Z,28.75
2018-07-16T11:49:13.296Z,28.75
2018-07-16T11:50:28.587Z,28.74
2018-07-16T11:51:43.396Z,28.74
2018-07-16T11:52:57.698Z,28.77
2018-07-16T11:54:12.612Z,28.78
2018-07-16T11:55:26.823Z,28.81
2018-07-16T11:56:41.618Z,28.83
2018-07-16T11:57:55.760Z,28.85
2018-07-16T11:59:10.922Z,28.89
2018-07-16T12:00:26.627Z,28.92
2018-07-16T12:01:41.233Z,28.98
2018-07-16T12:02:56.439Z,29.03
2018-07-16T12:04:10.953Z,29.1
2018-07-16T12:05:26.900Z,29.16
2018-07-16T12:06:41.111Z,29.18
2018-07-16T12:07:55.827Z,29.21
2018-07-16T12:09:10.572Z,29.24
2018-07-16T12:10:24.825Z,29.27
2018-07-16T12:11:39.520Z,29.32
2018-07-16T12:12:53.257Z,29.33
2018-07-16T12:14:08.014Z,29.37
2018-07-16T12:15:22.758Z,29.42
2018-07-16T12:16:36.772Z,29.43
2018-07-16T12:17:50.994Z,29.44
2018-07-16T12:19:04.936Z,29.42
2018-07-16T12:20:19.469Z,29.42
2018-07-16T12:21:34.746Z,29.42
2018-07-16T12:22:49.704Z,29.44
2018-07-16T12:24:03.620Z,29.44
2018-07-16T12:25:18.546Z,29.46
2018-07-16T12:26:32.768Z,29.51
2018-07-16T12:27:47.527Z,29.57
2018-07-16T12:29:02.261Z,29.64
2018-07-16T12:30:42.942Z,29.72
2018-07-16T12:31:57.702Z,29.78
2018-07-16T12:33:11.709Z,29.8
2018-07-16T12:34:45.799Z,29.81
2018-07-16T12:35:59.793Z,29.83
2018-07-16T12:37:14.036Z,29.87
2018-07-16T12:38:28.970Z,29.9
2018-07-16T12:39:43.440Z,29.95
2018-07-16T12:40:57.642Z,29.98
2018-07-16T12:42:12.118Z,30.01
2018-07-16T12:43:26.600Z,30.04
2018-07-16T12:44:42.179Z,30.09
2018-07-16T12:45:56.782Z,30.16
2018-07-16T12:47:11.250Z,30.22
2018-07-16T12:48:26.079Z,30.3
2018-07-16T12:49:40.568Z,30.38
2018-07-16T12:50:54.324Z,30.43
2018-07-16T12:52:08.547Z,30.41
2018-07-16T12:53:23.246Z,30.33
2018-07-16T12:54:37.687Z,30.28
2018-07-16T12:55:52.546Z,30.27
2018-07-16T12:57:07.064Z,30.24
2018-07-16T12:58:21.463Z,30.19
2018-07-16T12:59:35.969Z,30.19
2018-07-16T13:00:49.918Z,30.19
2018-07-16T13:02:04.632Z,30.21
2018-07-16T13:03:18.789Z,30.22
2018-07-16T13:04:32.825Z,30.21
2018-07-16T13:05:47.089Z,30.2
2018-07-16T13:07:01.778Z,30.2
2018-07-16T13:08:16.743Z,30.19
2018-07-16T13:09:30.999Z,30.21
2018-07-16T13:10:45.735Z,30.22
2018-07-16T13:12:00.234Z,30.21
2018-07-16T13:13:14.948Z,30.23
2018-07-16T13:14:29.652Z,30.24
2018-07-16T13:15:44.110Z,30.26
2018-07-16T13:16:58.452Z,30.26
2018-07-16T13:18:12.680Z,30.26
2018-07-16T13:19:27.467Z,30.26
2018-07-16T13:20:41.650Z,30.29
2018-07-16T13:21:55.790Z,30.31
2018-07-16T13:23:10.917Z,30.31
2018-07-16T13:24:25.354Z,30.34
2018-07-16T13:25:39.829Z,30.37
2018-07-16T13:26:54.279Z,30.4
2018-07-16T13:28:08.496Z,30.4
2018-07-16T13:29:22.226Z,30.41
2018-07-16T13:30:36.675Z,30.42
2018-07-16T13:31:51.463Z,30.44
2018-07-16T13:33:06.249Z,30.43
2018-07-16T13:34:21.554Z,30.46
2018-07-16T13:35:36.397Z,30.47
2018-07-16T13:36:51.494Z,30.48
2018-07-16T13:38:06.083Z,30.49
2018-07-16T13:39:21.119Z,30.48
2018-07-16T13:40:36.084Z,30.46
2018-07-16T13:41:50.538Z,30.48
2018-07-16T13:43:05.265Z,30.51
2018-07-16T13:44:19.533Z,30.53
2018-07-16T13:45:34.358Z,30.55
2018-07-16T13:46:49.465Z,30.58
2018-07-16T13:48:04.395Z,30.62
2018-07-16T13:49:18.870Z,30.66
2018-07-16T13:50:33.352Z,30.67
2018-07-16T13:51:47.778Z,30.68
2018-07-16T13:53:02.974Z,30.69
2018-07-16T13:54:17.655Z,30.69
2018-07-16T13:55:32.119Z,30.66
2018-07-16T13:56:46.101Z,30.64
2018-07-16T13:58:01.226Z,30.62
2018-07-16T13:59:15.435Z,30.62
2018-07-16T14:00:30.168Z,30.63
2018-07-16T14:01:44.886Z,30.66
2018-07-16T14:03:00.197Z,30.68
2018-07-16T14:04:15.209Z,30.7
2018-07-16T14:05:29.951Z,30.72
2018-07-16T14:06:43.669Z,30.76
2018-07-16T14:07:58.442Z,30.82
2018-07-16T14:09:12.948Z,30.84
2018-07-16T14:10:27.639Z,30.83
2018-07-16T14:11:42.120Z,30.8
2018-07-16T14:12:56.711Z,30.75
2018-07-16T14:14:11.180Z,30.7
2018-07-16T14:15:25.869Z,30.7
2018-07-16T14:16:40.497Z,30.69
2018-07-16T14:17:55.174Z,30.7
2018-07-16T14:19:09.897Z,30.71
2018-07-16T14:20:24.061Z,30.74
2018-07-16T14:21:38.531Z,30.77
2018-07-16T14:22:52.992Z,30.82
2018-07-16T14:24:07.739Z,30.84
2018-07-16T14:25:22.751Z,30.88
2018-07-16T14:26:37.191Z,30.91
2018-07-16T14:27:51.377Z,30.93
2018-07-16T14:29:06.196Z,30.93
2018-07-16T14:30:21.280Z,30.98
2018-07-16T14:31:36.280Z,31
2018-07-16T14:32:50.987Z,30.97
2018-07-16T14:34:05.169Z,30.94
2018-07-16T14:35:19.279Z,30.91
2018-07-16T14:36:33.783Z,30.87
2018-07-16T14:37:47.749Z,30.79
2018-07-16T14:39:02.184Z,30.77
2018-07-16T14:40:16.847Z,30.74
2018-07-16T14:41:31.568Z,30.73
2018-07-16T14:42:46.523Z,30.72
2018-07-16T14:44:01.458Z,30.72
2018-07-16T14:45:15.800Z,30.74
2018-07-16T14:46:30.228Z,30.73
2018-07-16T14:47:44.919Z,30.73
2018-07-16T14:48:59.616Z,30.72
2018-07-16T14:50:14.341Z,30.73
2018-07-16T14:51:29.657Z,30.71
2018-07-16T14:52:43.599Z,30.69
2018-07-16T14:53:58.384Z,30.69
2018-07-16T14:55:12.580Z,30.65
2018-07-16T14:56:27.540Z,30.65
2018-07-16T14:57:41.562Z,30.65
2018-07-16T14:58:57.001Z,30.69
2018-07-16T15:00:12.922Z,30.7
2018-07-16T15:01:27.447Z,30.73
2018-07-16T15:02:42.446Z,30.77
2018-07-16T15:03:56.491Z,30.77
2018-07-16T15:05:10.451Z,30.74
2018-07-16T15:06:24.414Z,30.72
2018-07-16T15:07:39.403Z,30.69
2018-07-16T15:08:53.871Z,30.68
2018-07-16T15:10:08.670Z,30.68
2018-07-16T15:11:22.973Z,30.69
2018-07-16T15:12:37.751Z,30.73
2018-07-16T15:13:52.262Z,30.77
2018-07-16T15:15:06.739Z,30.79
2018-07-16T15:16:21.000Z,30.82
2018-07-16T15:17:35.477Z,30.85
2018-07-16T15:18:50.009Z,30.89
2018-07-16T15:20:05.273Z,30.91
2018-07-16T15:21:21.821Z,30.94
2018-07-16T15:22:37.636Z,30.98
2018-07-16T15:23:51.373Z,31.01
2018-07-16T15:25:06.052Z,31.04
2018-07-16T15:26:20.789Z,31.07
2018-07-16T15:27:35.507Z,31.09
2018-07-16T15:28:50.160Z,31.1
2018-07-16T15:30:04.182Z,31.11
2018-07-16T15:31:18.685Z,31.1
2018-07-16T15:32:32.967Z,31.1
2018-07-16T15:33:47.241Z,31.09
2018-07-16T15:35:03.109Z,31.1
2018-07-16T15:36:17.578Z,31.09
2018-07-16T15:37:31.831Z,31.09
2018-07-16T15:38:46.565Z,31.08
2018-07-16T15:40:01.715Z,31.07
2018-07-16T15:41:15.925Z,31.07
2018-07-16T15:42:31.478Z,31.06
2018-07-16T15:43:45.384Z,31.02
2018-07-16T15:45:00.849Z,30.95
2018-07-16T15:46:16.512Z,30.89
2018-07-16T15:47:31.876Z,30.85
2018-07-16T15:48:47.199Z,30.79
2018-07-16T15:50:02.511Z,30.78
2018-07-16T15:51:16.897Z,30.79
2018-07-16T15:52:32.022Z,30.78
2018-07-16T15:53:47.129Z,30.75
2018-07-16T15:55:02.473Z,30.74
2018-07-16T15:56:16.727Z,30.73
2018-07-16T15:57:31.244Z,30.73
2018-07-16T15:58:46.316Z,30.71
2018-07-16T16:00:00.591Z,30.72
2018-07-16T16:01:15.316Z,30.71
2018-07-16T16:02:30.031Z,30.7
2018-07-16T16:03:44.683Z,30.72
2018-07-16T16:04:59.182Z,30.73
2018-07-16T16:06:13.115Z,30.72
2018-07-16T16:07:27.723Z,30.75
2018-07-16T16:08:42.279Z,30.75
2018-07-16T16:09:56.647Z,30.78